Time;durP1;ratioP1;P1;durP2;ratioP2;P2;SDS_P1;SDS_P2;PMS_P1;PMS_P2;Temp;Humidity;BMP_temperature;BMP_pressure;BME280_temperature;BME280_humidity;BME280_pressure;Samples;Min_cycle;Max_cycle;Signal;HPM_P1;HPM_P2
2022/06/01 00:00:51;;;;;;;8.63;7.93;;;16.10;80.80;;;;;;5140321;27;20466;-65
2022/06/01 00:03:18;;;;;;;7.77;7.17;;;16.10;80.80;;;;;;5139008;27;20451;-65
2022/06/01 00:05:45;;;;;;;11.30;7.83;;;16.00;80.80;;;;;;5144665;27;20474;-65
2022/06/01 00:08:12;;;;;;;7.30;6.63;;;15.90;81.60;;;;;;5145455;27;20821;-66
2022/06/01 00:10:39;;;;;;;7.60;7.00;;;15.90;82.10;;;;;;5145145;27;20469;-65
2022/06/01 00:13:07;;;;;;;9.80;7.60;;;15.80;82.10;;;;;;5145497;27;20462;-65
2022/06/01 00:15:34;;;;;;;7.30;6.70;;;15.80;81.90;;;;;;5145089;27;20884;-65
2022/06/01 00:18:01;;;;;;;8.23;7.47;;;15.80;82.20;;;;;;5144511;27;21006;-65
2022/06/01 00:20:29;;;;;;;9.83;7.33;;;15.70;82.10;;;;;;5145129;27;20466;-65
2022/06/01 00:22:57;;;;;;;7.87;7.07;;;15.60;81.90;;;;;;5146492;27;20453;-65
2022/06/01 00:25:25;;;;;;;8.10;7.30;;;15.60;82.30;;;;;;5144954;27;20466;-65
2022/06/01 00:27:52;;;;;;;7.67;6.87;;;15.60;83.00;;;;;;5144758;27;20453;-65
2022/06/01 00:30:22;;;;;;;10.83;6.77;;;15.60;83.30;;;;;;5144334;27;20469;-65
2022/06/01 00:32:49;;;;;;;13.17;7.27;;;15.60;83.60;;;;;;5143885;27;20458;-65
2022/06/01 00:35:17;;;;;;;7.00;6.43;;;15.60;83.40;;;;;;5144512;27;20442;-65
2022/06/01 00:37:44;;;;;;;10.13;7.43;;;15.50;83.00;;;;;;5144536;27;20446;-65
2022/06/01 00:40:16;;;;;;;9.53;7.30;;;15.50;82.80;;;;;;5143395;27;20839;-65
2022/06/01 00:42:46;;;;;;;9.50;7.53;;;15.40;82.40;;;;;;5144201;27;20483;-66
2022/06/01 00:45:15;;;;;;;9.00;7.57;;;15.30;82.40;;;;;;5143891;28;20453;-66
2022/06/01 00:47:43;;;;;;;7.20;6.60;;;15.20;82.30;;;;;;5144174;28;20446;-64
2022/06/01 00:50:15;;;;;;;9.23;8.43;;;15.10;82.10;;;;;;5143634;28;20465;-65
2022/06/01 00:52:46;;;;;;;8.67;6.87;;;15.10;82.30;;;;;;5144462;28;20428;-65
2022/06/01 00:55:17;;;;;;;9.57;6.97;;;15.10;82.30;;;;;;5143332;28;20426;-65
2022/06/01 00:57:47;;;;;;;7.40;6.70;;;15.10;82.30;;;;;;5144496;28;20426;-64
2022/06/01 01:00:20;;;;;;;9.80;6.50;;;15.10;82.10;;;;;;5144830;28;20476;-64
2022/06/01 01:02:49;;;;;;;9.53;7.53;;;15.00;82.60;;;;;;5143686;28;20438;-65
2022/06/01 01:05:17;;;;;;;9.50;6.97;;;15.00;83.00;;;;;;5142978;28;20446;-64
2022/06/01 01:07:45;;;;;;;8.97;7.60;;;15.00;83.60;;;;;;5143486;28;20442;-64
2022/06/01 01:10:15;;;;;;;7.87;6.53;;;15.00;84.20;;;;;;5137903;28;21021;-68
2022/06/01 01:12:58;;;;;;;9.73;6.43;;;15.00;85.20;;;;;;5134304;28;20457;-68
2022/06/01 01:15:28;;;;;;;6.83;5.10;;;15.00;84.90;;;;;;5134256;28;20483;-69
2022/06/01 01:17:56;;;;;;;9.43;6.27;;;15.00;84.90;;;;;;5133782;28;20855;-69
2022/06/01 01:20:24;;;;;;;8.10;5.27;;;15.00;85.00;;;;;;5133967;28;20474;-69
2022/06/01 01:22:58;;;;;;;6.27;5.53;;;15.00;84.60;;;;;;5134120;28;20452;-69
2022/06/01 01:25:29;;;;;;;8.17;6.07;;;15.00;84.40;;;;;;5134940;28;20437;-69
2022/06/01 01:27:58;;;;;;;14.00;5.73;;;15.00;84.10;;;;;;5133806;28;20507;-69
2022/06/01 01:30:37;;;;;;;9.70;5.63;;;14.90;84.20;;;;;;5133894;28;20474;-69
2022/06/01 01:33:05;;;;;;;9.40;5.33;;;14.90;84.30;;;;;;5135988;27;20476;-69
2022/06/01 01:35:31;;;;;;;9.10;5.00;;;14.90;84.30;;;;;;5137743;27;20453;-69
2022/06/01 01:38:01;;;;;;;11.53;5.67;;;14.80;84.20;;;;;;5137785;27;20434;-69
2022/06/01 01:40:29;;;;;;;7.17;4.63;;;14.80;84.50;;;;;;5137651;27;20457;-69
2022/06/01 01:43:00;;;;;;;11.90;5.60;;;14.90;85.00;;;;;;5137683;27;20441;-69
2022/06/01 01:45:29;;;;;;;7.10;5.27;;;14.80;84.70;;;;;;5137815;27;20438;-69
2022/06/01 01:47:56;;;;;;;6.53;5.40;;;14.80;84.70;;;;;;5137314;27;20963;-69
2022/06/01 01:50:25;;;;;;;4.83;4.33;;;14.80;85.60;;;;;;5137544;27;20474;-69
2022/06/01 01:52:52;;;;;;;8.17;5.60;;;14.80;84.60;;;;;;5137541;27;20441;-69
2022/06/01 01:55:31;;;;;;;8.63;5.77;;;14.80;84.70;;;;;;5137713;27;20512;-69
2022/06/01 01:58:08;;;;;;;6.20;4.90;;;14.80;84.70;;;;;;5137425;27;20422;-69
2022/06/01 02:00:40;;;;;;;5.80;4.40;;;14.70;84.20;;;;;;5137287;27;20468;-69
2022/06/01 02:03:14;;;;;;;23.97;4.87;;;14.70;84.30;;;;;;5136978;27;20856;-69
2022/06/01 02:06:05;;;;;;;5.53;4.00;;;14.70;84.50;;;;;;5137352;27;20427;-69
2022/06/01 02:08:36;;;;;;;7.17;5.43;;;14.70;84.30;;;;;;5137297;27;20423;-69
2022/06/01 02:13:58;;;;;;;5.43;4.90;;;14.60;84.30;;;;;;5137243;27;20452;-69
2022/06/01 02:16:29;;;;;;;4.93;4.50;;;14.60;84.50;;;;;;5137054;27;20426;-69
2022/06/01 02:18:59;;;;;;;5.23;4.40;;;14.50;84.30;;;;;;5137041;27;20426;-69
2022/06/01 02:21:28;;;;;;;5.20;4.70;;;14.50;85.10;;;;;;5136881;27;20839;-69
2022/06/01 02:23:58;;;;;;;7.27;5.27;;;14.50;84.80;;;;;;5136559;27;20940;-69
2022/06/01 02:26:25;;;;;;;4.63;4.23;;;14.50;85.40;;;;;;5136641;27;20833;-69
2022/06/01 02:28:58;;;;;;;7.97;4.80;;;14.50;85.30;;;;;;5137412;27;20450;-69
2022/06/01 02:31:28;;;;;;;9.37;4.90;;;14.50;85.30;;;;;;5137184;27;20473;-69
2022/06/01 02:33:56;;;;;;;7.37;5.50;;;14.50;84.90;;;;;;5136449;27;20490;-69
2022/06/01 02:36:25;;;;;;;5.27;4.77;;;14.50;84.90;;;;;;5136494;27;20446;-69
2022/06/01 02:38:54;;;;;;;5.03;4.63;;;14.40;84.60;;;;;;5138183;27;20442;-69
2022/06/01 02:44:07;;;;;;;5.53;5.00;;;14.40;84.50;;;;;;5136638;27;20398;-69
2022/06/01 02:46:33;;;;;;;5.63;4.00;;;14.40;84.70;;;;;;5136895;27;20859;-69
2022/06/01 02:49:01;;;;;;;6.17;4.80;;;14.30;84.70;;;;;;5136713;27;20442;-69
2022/06/01 02:51:28;;;;;;;4.40;4.00;;;14.30;84.60;;;;;;5136757;27;20465;-69
2022/06/01 02:53:55;;;;;;;5.33;4.77;;;14.20;84.50;;;;;;5136303;27;20842;-69
2022/06/01 02:56:24;;;;;;;5.00;4.60;;;14.20;85.20;;;;;;5136350;27;20454;-69
2022/06/01 02:58:51;;;;;;;8.00;4.60;;;14.20;85.60;;;;;;5136329;27;20817;-69
2022/06/01 03:01:19;;;;;;;4.70;4.00;;;14.10;85.30;;;;;;5136148;27;20466;-69
2022/06/01 03:03:47;;;;;;;10.47;5.03;;;14.10;85.40;;;;;;5136243;27;20447;-69
2022/06/01 03:06:14;;;;;;;9.40;4.57;;;14.10;85.60;;;;;;5136873;27;20473;-69
2022/06/01 03:08:41;;;;;;;5.00;4.50;;;14.10;86.00;;;;;;5136052;27;20553;-69
2022/06/01 03:11:08;;;;;;;5.00;4.50;;;14.00;86.00;;;;;;5135597;27;20837;-69
2022/06/01 03:13:34;;;;;;;5.20;4.70;;;14.00;86.00;;;;;;5135964;27;20441;-69
2022/06/01 03:16:01;;;;;;;6.13;4.90;;;14.00;85.80;;;;;;5135962;27;20446;-69
2022/06/01 03:18:31;;;;;;;5.20;4.80;;;14.00;86.00;;;;;;5135874;27;20438;-69
2022/06/01 03:20:58;;;;;;;7.87;5.27;;;14.00;85.90;;;;;;5135414;27;20866;-69
2022/06/01 03:23:25;;;;;;;4.57;4.17;;;14.10;86.30;;;;;;5136602;27;20635;-69
2022/06/01 03:25:52;;;;;;;5.50;4.73;;;14.00;85.70;;;;;;5135689;27;20442;-69
2022/06/01 03:28:19;;;;;;;6.27;5.20;;;14.00;85.80;;;;;;5135622;27;20449;-69
2022/06/01 03:30:46;;;;;;;7.30;4.90;;;14.10;86.30;;;;;;5135445;27;20980;-69
2022/06/01 03:33:13;;;;;;;4.97;4.47;;;14.10;86.80;;;;;;5135357;27;20493;-69
2022/06/01 03:35:41;;;;;;;5.97;5.37;;;14.10;87.20;;;;;;5135569;27;20505;-69
2022/06/01 03:38:08;;;;;;;6.13;5.63;;;14.10;87.30;;;;;;5135423;27;20450;-69
2022/06/01 03:40:37;;;;;;;5.27;4.87;;;14.10;87.10;;;;;;5135527;27;20465;-69
2022/06/01 03:43:04;;;;;;;5.70;4.10;;;14.10;87.10;;;;;;5135057;27;20604;-69
2022/06/01 03:48:15;;;;;;;5.97;5.47;;;14.10;86.30;;;;;;5135355;27;20398;-69
2022/06/01 03:50:45;;;;;;;5.37;4.97;;;14.10;86.00;;;;;;5135169;27;20486;-69
2022/06/01 03:53:12;;;;;;;11.80;4.60;;;14.10;86.50;;;;;;5135082;27;20469;-69
2022/06/01 03:55:38;;;;;;;10.33;5.37;;;14.00;86.70;;;;;;5134299;27;20485;-69
2022/06/01 03:58:06;;;;;;;8.27;5.30;;;14.00;86.60;;;;;;5135220;27;20461;-69
2022/06/01 04:00:33;;;;;;;5.60;5.10;;;14.00;86.70;;;;;;5135016;27;20465;-69
2022/06/01 04:03:00;;;;;;;5.70;5.30;;;13.90;86.60;;;;;;5134949;27;20453;-69
2022/06/01 04:05:27;;;;;;;7.50;5.60;;;13.90;86.90;;;;;;5135033;27;20442;-69
2022/06/01 04:07:55;;;;;;;6.13;5.53;;;13.80;87.10;;;;;;5134826;27;20442;-68
2022/06/01 04:10:22;;;;;;;6.13;5.53;;;13.80;87.40;;;;;;5134834;27;20848;-68
2022/06/01 04:12:49;;;;;;;10.87;6.20;;;13.70;87.40;;;;;;5134818;27;20442;-68
2022/06/01 04:15:16;;;;;;;6.00;5.50;;;13.70;87.80;;;;;;5134683;27;20478;-68
2022/06/01 04:17:43;;;;;;;9.07;6.90;;;13.70;88.20;;;;;;5134686;27;20454;-68
2022/06/01 04:20:11;;;;;;;8.23;7.00;;;13.70;88.40;;;;;;5134520;27;20480;-68
2022/06/01 04:22:40;;;;;;;7.70;5.83;;;13.70;88.80;;;;;;5134339;27;20933;-68
2022/06/01 04:25:12;;;;;;;9.07;6.40;;;13.80;88.70;;;;;;5134592;27;20442;-68
2022/06/01 04:27:40;;;;;;;9.60;6.53;;;13.80;88.60;;;;;;5134534;27;20905;-68
2022/06/01 04:30:08;;;;;;;9.93;6.83;;;13.80;88.40;;;;;;5134111;27;20470;-68
2022/06/01 04:32:35;;;;;;;10.17;6.70;;;13.70;88.60;;;;;;5134315;27;20449;-68
2022/06/01 04:35:03;;;;;;;6.80;6.20;;;13.70;88.90;;;;;;5134067;27;21008;-68
2022/06/01 04:37:30;;;;;;;7.37;6.63;;;13.70;88.70;;;;;;5134406;27;20442;-68
2022/06/01 04:39:57;;;;;;;11.73;6.50;;;13.80;88.70;;;;;;5134380;27;20461;-69
2022/06/01 04:42:25;;;;;;;7.37;6.17;;;13.80;89.00;;;;;;5134428;27;20517;-68
2022/06/01 04:44:52;;;;;;;6.90;6.20;;;13.80;89.00;;;;;;5134340;27;20441;-68
2022/06/01 04:47:19;;;;;;;6.97;5.83;;;13.80;89.00;;;;;;5134409;27;20446;-68
2022/06/01 04:49:47;;;;;;;9.23;6.40;;;13.90;89.20;;;;;;5134212;28;20490;-68
2022/06/01 04:52:16;;;;;;;7.30;6.07;;;13.90;88.80;;;;;;5133876;28;21035;-68
2022/06/01 04:54:43;;;;;;;6.77;6.07;;;13.90;88.90;;;;;;5133945;28;20828;-68
2022/06/01 04:57:10;;;;;;;6.53;5.93;;;13.90;89.80;;;;;;5134048;28;20882;-69
2022/06/01 04:59:38;;;;;;;10.70;6.90;;;13.90;89.00;;;;;;5134651;28;20483;-69
2022/06/01 05:02:06;;;;;;;8.20;6.70;;;13.90;89.00;;;;;;5134172;28;20446;-68
2022/06/01 05:04:33;;;;;;;6.73;6.13;;;13.90;88.70;;;;;;5134353;28;20473;-69
2022/06/01 05:07:01;;;;;;;9.90;5.57;;;13.90;89.10;;;;;;5136298;27;20453;-69
2022/06/01 05:09:28;;;;;;;5.80;5.23;;;13.90;89.20;;;;;;5138456;27;20501;-69
2022/06/01 05:11:56;;;;;;;8.37;6.10;;;14.00;89.60;;;;;;5138203;27;20975;-69
2022/06/01 05:14:23;;;;;;;7.63;5.80;;;14.00;89.30;;;;;;5138231;27;20485;-69
2022/06/01 05:16:51;;;;;;;7.13;5.50;;;14.00;89.00;;;;;;5137850;27;20967;-69
2022/06/01 05:19:18;;;;;;;7.87;5.40;;;14.00;89.10;;;;;;5138087;27;20521;-69
2022/06/01 05:21:45;;;;;;;7.60;5.23;;;14.00;89.10;;;;;;5138131;27;20452;-69
2022/06/01 05:24:12;;;;;;;6.50;5.90;;;14.00;89.30;;;;;;5138209;27;20805;-69
2022/06/01 05:26:39;;;;;;;7.93;6.40;;;14.10;89.70;;;;;;5138170;27;20459;-69
2022/06/01 05:29:06;;;;;;;6.03;5.43;;;14.10;89.90;;;;;;5137958;27;20856;-68
2022/06/01 05:31:32;;;;;;;5.90;5.40;;;14.10;89.90;;;;;;5138336;27;20441;-69
2022/06/01 05:34:00;;;;;;;6.27;5.10;;;14.10;89.30;;;;;;5137618;27;20453;-68
2022/06/01 05:36:29;;;;;;;7.23;6.00;;;14.10;89.20;;;;;;5137944;27;20488;-68
2022/06/01 05:38:56;;;;;;;8.03;5.60;;;14.10;89.80;;;;;;5137713;27;20454;-69
2022/06/01 05:41:23;;;;;;;7.03;4.50;;;14.10;89.60;;;;;;5137664;27;20462;-70
2022/06/01 05:43:51;;;;;;;6.57;4.80;;;14.10;89.60;;;;;;5137947;27;20446;-70
2022/06/01 05:46:18;;;;;;;6.57;5.93;;;14.10;89.80;;;;;;5137320;27;20453;-70
2022/06/01 05:48:45;;;;;;;5.90;5.40;;;14.20;89.40;;;;;;5137568;27;20454;-69
2022/06/01 05:51:13;;;;;;;5.07;4.57;;;14.30;89.00;;;;;;5137515;27;20469;-70
2022/06/01 05:53:40;;;;;;;7.00;4.63;;;14.30;89.10;;;;;;5137596;27;20438;-70
2022/06/01 05:56:06;;;;;;;5.53;4.87;;;14.30;88.80;;;;;;5136725;27;20477;-70
2022/06/01 05:58:33;;;;;;;7.90;5.20;;;14.30;89.00;;;;;;5137530;27;20446;-70
2022/06/01 06:01:02;;;;;;;13.90;4.87;;;14.40;88.70;;;;;;5137397;27;20544;-70
2022/06/01 06:03:30;;;;;;;7.27;4.60;;;14.40;89.10;;;;;;5136949;27;20963;-70
2022/06/01 06:06:16;;;;;;;6.23;4.00;;;14.50;87.80;;;;;;5137619;27;20460;-70
2022/06/01 06:08:51;;;;;;;5.10;3.80;;;14.50;85.90;;;;;;5137268;27;20426;-70
2022/06/01 06:11:19;;;;;;;5.10;3.73;;;14.50;87.10;;;;;;5137182;27;20995;-70
2022/06/01 06:13:46;;;;;;;6.10;4.83;;;14.50;87.90;;;;;;5137691;27;20437;-70
2022/06/01 06:16:14;;;;;;;9.87;5.00;;;14.60;87.30;;;;;;5137047;27;20481;-70
2022/06/01 06:18:41;;;;;;;7.33;4.67;;;14.70;86.50;;;;;;5136157;27;20468;-70
2022/06/01 06:21:09;;;;;;;7.43;3.73;;;14.70;86.60;;;;;;5136852;27;20465;-70
2022/06/01 06:23:35;;;;;;;7.13;4.43;;;14.70;86.30;;;;;;5136983;27;20458;-70
2022/06/01 06:26:04;;;;;;;12.10;4.57;;;14.70;86.50;;;;;;5136882;27;20451;-70
2022/06/01 06:28:32;;;;;;;7.27;4.23;;;14.80;87.50;;;;;;5136834;27;20882;-70
2022/06/01 06:30:59;;;;;;;8.60;4.90;;;14.90;87.70;;;;;;5136737;27;20987;-69
2022/06/01 06:33:26;;;;;;;6.13;4.03;;;15.10;86.90;;;;;;5136215;27;20975;-70
2022/06/01 06:36:01;;;;;;;6.97;4.50;;;15.20;86.60;;;;;;5136641;27;20531;-70
2022/06/01 06:38:30;;;;;;;8.47;4.50;;;15.40;85.90;;;;;;5136669;27;20490;-69
2022/06/01 06:40:57;;;;;;;6.60;4.60;;;15.70;85.70;;;;;;5136212;27;21003;-69
2022/06/01 06:43:27;;;;;;;5.17;4.13;;;15.80;85.30;;;;;;5136865;27;20438;-70
2022/06/01 06:45:58;;;;;;;7.90;4.33;;;15.90;83.50;;;;;;5137560;27;20441;-69
2022/06/01 06:48:25;;;;;;;8.53;4.27;;;16.00;83.10;;;;;;5136358;27;20830;-69
2022/06/01 06:50:52;;;;;;;6.43;4.57;;;16.10;83.00;;;;;;5136378;27;20485;-69
2022/06/01 06:53:18;;;;;;;10.07;5.17;;;16.20;82.90;;;;;;5136692;27;20465;-70
2022/06/01 06:55:45;;;;;;;6.63;4.50;;;16.30;83.10;;;;;;5136227;27;20474;-70
2022/06/01 06:58:12;;;;;;;8.63;4.27;;;16.30;83.20;;;;;;5136406;27;20443;-69
2022/06/01 07:00:40;;;;;;;7.93;4.63;;;16.40;83.40;;;;;;5136291;27;20458;-69
2022/06/01 07:03:08;;;;;;;4.97;3.80;;;16.40;82.70;;;;;;5136346;27;20450;-69
2022/06/01 07:08:19;;;;;;;7.43;3.90;;;16.50;83.20;;;;;;5136600;27;20393;-69
2022/06/01 07:10:46;;;;;;;5.33;4.10;;;16.50;82.60;;;;;;5136019;27;20474;-70
2022/06/01 07:13:13;;;;;;;6.87;4.67;;;16.50;80.80;;;;;;5136014;27;20452;-70
2022/06/01 07:15:41;;;;;;;10.63;4.13;;;16.60;82.50;;;;;;5135884;27;20473;-70
2022/06/01 07:18:08;;;;;;;4.83;3.30;;;16.60;80.70;;;;;;5135705;27;20450;-70
2022/06/01 07:20:35;;;;;;;4.60;3.90;;;16.70;80.30;;;;;;5135934;27;20469;-70
2022/06/01 07:23:02;;;;;;;7.00;4.33;;;16.80;82.10;;;;;;5135723;27;20503;-70
2022/06/01 07:25:29;;;;;;;6.53;3.77;;;17.00;82.20;;;;;;5135800;27;20442;-70
2022/06/01 07:27:57;;;;;;;5.90;3.93;;;17.00;80.50;;;;;;5135730;27;20484;-70
2022/06/01 07:30:24;;;;;;;7.70;3.50;;;17.10;80.20;;;;;;5135828;27;20470;-70
2022/06/01 07:32:52;;;;;;;4.53;4.10;;;17.10;79.20;;;;;;5135378;27;20465;-70
2022/06/01 07:35:20;;;;;;;7.07;3.90;;;17.10;79.70;;;;;;5136034;27;20485;-70
2022/06/01 07:43:19;;;;;;;14.10;4.17;;;17.20;79.60;;;;;;5135769;27;20402;-70
2022/06/01 07:45:48;;;;;;;9.20;3.43;;;17.40;79.90;;;;;;5135457;27;20426;-69
2022/06/01 07:48:17;;;;;;;11.03;4.13;;;17.50;77.40;;;;;;5135351;27;20429;-69
2022/06/01 07:50:44;;;;;;;8.77;3.80;;;17.60;77.30;;;;;;5135186;27;20461;-70
2022/06/01 07:53:11;;;;;;;6.80;3.77;;;17.70;77.80;;;;;;5135496;27;20444;-70
2022/06/01 07:55:38;;;;;;;7.23;3.70;;;17.90;77.50;;;;;;5135005;27;20482;-70
2022/06/01 07:58:05;;;;;;;5.57;3.40;;;18.10;77.40;;;;;;5135078;27;20452;-69
2022/06/01 08:00:32;;;;;;;4.07;3.30;;;18.30;76.90;;;;;;5135264;27;20465;-69
2022/06/01 08:02:59;;;;;;;5.47;2.53;;;18.50;74.80;;;;;;5134917;27;20438;-69
2022/06/01 08:05:28;;;;;;;3.23;2.50;;;18.60;72.20;;;;;;5134679;27;20445;-69
2022/06/01 08:07:55;;;;;;;4.17;2.90;;;18.60;70.80;;;;;;5135430;27;20446;-69
2022/06/01 08:10:22;;;;;;;5.00;3.70;;;18.60;69.80;;;;;;5135071;27;20518;-70
2022/06/01 08:13:06;;;;;;;6.17;3.60;;;18.70;71.30;;;;;;5135195;27;20454;-70
2022/06/01 08:15:34;;;;;;;3.20;2.87;;;18.50;71.50;;;;;;5134446;27;20976;-70
2022/06/01 08:18:00;;;;;;;3.43;2.70;;;18.50;71.70;;;;;;5135000;27;20499;-70
2022/06/01 08:20:29;;;;;;;3.60;2.30;;;18.60;70.30;;;;;;5135026;27;20526;-70
2022/06/01 08:22:57;;;;;;;8.20;3.33;;;18.70;72.30;;;;;;5134665;27;20490;-70
2022/06/01 08:25:24;;;;;;;4.20;3.40;;;18.70;71.50;;;;;;5134603;27;20441;-70
2022/06/01 08:27:52;;;;;;;4.80;3.40;;;18.80;71.80;;;;;;5134650;27;20507;-70
2022/06/01 08:30:23;;;;;;;5.60;3.40;;;18.90;70.40;;;;;;5134597;27;20464;-70
2022/06/01 08:32:50;;;;;;;3.70;2.77;;;19.10;69.40;;;;;;5134549;27;20465;-70
2022/06/01 08:35:19;;;;;;;4.20;3.53;;;19.40;70.00;;;;;;5134421;27;20461;-70
2022/06/01 08:37:48;;;;;;;5.63;2.60;;;19.60;68.40;;;;;;5134529;27;20454;-70
2022/06/01 08:40:17;;;;;;;5.77;3.00;;;19.70;65.60;;;;;;5134112;27;20469;-70
2022/06/01 08:42:49;;;;;;;7.73;2.70;;;19.70;66.70;;;;;;5134071;27;20472;-70
2022/06/01 08:45:17;;;;;;;7.10;3.30;;;19.70;64.10;;;;;;5134509;27;20426;-70
2022/06/01 08:47:44;;;;;;;5.50;3.40;;;19.80;64.30;;;;;;5134484;27;20549;-70
2022/06/01 08:50:21;;;;;;;5.73;3.40;;;19.80;63.00;;;;;;5134398;28;20469;-70
2022/06/01 08:52:49;;;;;;;8.20;2.53;;;19.80;63.80;;;;;;5134352;28;20430;-70
2022/06/01 08:55:17;;;;;;;3.77;3.20;;;19.80;64.10;;;;;;5134510;28;20442;-70
2022/06/01 08:57:50;;;;;;;8.00;2.73;;;19.70;62.70;;;;;;5134145;28;20989;-70
2022/06/01 09:00:20;;;;;;;5.90;3.50;;;19.70;61.90;;;;;;5134863;28;20461;-70
2022/06/01 09:02:54;;;;;;;4.77;2.80;;;19.60;63.10;;;;;;5134530;28;20453;-70
2022/06/01 09:05:30;;;;;;;3.57;2.33;;;19.60;63.00;;;;;;5134663;28;20429;-70
2022/06/01 09:08:02;;;;;;;5.10;2.50;;;19.90;64.90;;;;;;5134152;28;20434;-69
2022/06/01 09:10:53;;;;;;;5.37;2.97;;;20.20;61.80;;;;;;5134221;28;20859;-70
2022/06/01 09:13:24;;;;;;;4.53;2.30;;;20.40;58.60;;;;;;5133863;28;20475;-70
2022/06/01 09:15:55;;;;;;;6.37;2.70;;;20.70;60.00;;;;;;5134197;28;20458;-70
2022/06/01 09:18:24;;;;;;;2.33;2.10;;;20.80;59.40;;;;;;5134184;28;20442;-70
2022/06/01 09:23:37;;;;;;;4.60;2.53;;;20.90;56.70;;;;;;5133848;28;20418;-70
2022/06/01 09:26:05;;;;;;;6.13;2.63;;;20.90;57.70;;;;;;5133639;28;20933;-70
2022/06/01 09:28:38;;;;;;;3.93;2.10;;;21.00;55.90;;;;;;5134047;28;20481;-71
2022/06/01 09:31:24;;;;;;;4.33;2.30;;;21.10;56.30;;;;;;5133915;28;20509;-69
2022/06/01 09:33:51;;;;;;;5.80;3.10;;;21.40;54.70;;;;;;5133585;28;20465;-69
2022/06/01 09:36:26;;;;;;;3.93;1.93;;;21.70;54.50;;;;;;5133946;28;20493;-69
2022/06/01 09:38:58;;;;;;;3.60;1.73;;;22.00;53.20;;;;;;5133838;28;20481;-71
2022/06/01 09:41:30;;;;;;;8.80;2.13;;;22.30;54.00;;;;;;5133788;28;20454;-71
2022/06/01 09:43:59;;;;;;;5.67;2.03;;;22.30;53.00;;;;;;5134152;28;20426;-70
2022/06/01 09:46:33;;;;;;;6.33;2.80;;;22.30;53.20;;;;;;5133661;28;21001;-70
2022/06/01 09:49:01;;;;;;;4.93;2.17;;;22.40;51.30;;;;;;5133942;28;20434;-70
2022/06/01 09:51:28;;;;;;;3.53;2.10;;;22.40;51.20;;;;;;5133771;28;20464;-70
2022/06/01 09:54:10;;;;;;;1.93;1.73;;;22.50;52.60;;;;;;5135527;27;20979;-70
2022/06/01 09:56:44;;;;;;;4.90;2.20;;;22.90;52.10;;;;;;5137147;27;20845;-70
2022/06/01 10:07:42;;;;;;;3.90;1.77;;;23.40;47.00;;;;;;5137550;27;20465;-71
2022/06/01 10:10:22;;;;;;;1.70;1.37;;;23.40;45.30;;;;;;5137243;27;20462;-70
2022/06/01 10:12:54;;;;;;;3.63;1.70;;;23.20;45.00;;;;;;5137399;27;20448;-70
2022/06/01 10:15:28;;;;;;;1.50;1.40;;;23.00;44.40;;;;;;5137309;27;20422;-70
2022/06/01 10:18:00;;;;;;;2.80;1.57;;;23.30;47.20;;;;;;5136954;27;20917;-70
2022/06/01 10:20:33;;;;;;;2.33;1.23;;;23.50;45.00;;;;;;5136972;27;20477;-71
2022/06/01 10:23:05;;;;;;;4.03;1.70;;;23.70;43.60;;;;;;5136928;27;20905;-71
2022/06/01 10:25:39;;;;;;;2.70;1.50;;;23.70;43.90;;;;;;5137094;27;20437;-70
2022/06/01 10:28:10;;;;;;;3.03;1.87;;;23.70;44.00;;;;;;5137039;27;20465;-70
2022/06/01 10:30:39;;;;;;;7.13;2.10;;;24.00;44.30;;;;;;5136902;27;20535;-70
2022/06/01 10:33:10;;;;;;;2.50;1.37;;;23.90;42.30;;;;;;5136612;27;20446;-71
2022/06/01 10:35:41;;;;;;;4.80;1.30;;;23.80;41.40;;;;;;5136412;27;20901;-71
2022/06/01 10:38:20;;;;;;;2.63;1.83;;;23.60;42.40;;;;;;5136816;27;20491;-70
2022/06/01 10:40:57;;;;;;;2.23;1.60;;;23.50;44.10;;;;;;5136532;27;20466;-71
2022/06/01 10:43:40;;;;;;;1.60;1.20;;;23.80;43.60;;;;;;5136674;27;20430;-71
2022/06/01 10:46:25;;;;;;;2.90;1.37;;;24.40;42.40;;;;;;5136587;27;20603;-71
2022/06/01 10:49:03;;;;;;;2.40;1.03;;;24.60;40.80;;;;;;5136580;27;20437;-70
2022/06/01 10:51:34;;;;;;;5.83;1.90;;;24.60;40.20;;;;;;5136804;27;20466;-70
2022/06/01 10:54:06;;;;;;;1.30;1.20;;;24.30;40.10;;;;;;5137112;27;20434;-71
2022/06/01 10:56:34;;;;;;;2.23;1.30;;;24.30;40.10;;;;;;5136588;27;20465;-71
2022/06/01 10:59:04;;;;;;;3.13;1.33;;;24.60;39.00;;;;;;5136523;27;20453;-71
2022/06/01 11:01:41;;;;;;;2.00;1.50;;;24.80;39.40;;;;;;5136260;27;20449;-70
2022/06/01 11:04:45;;;;;;;2.03;1.20;;;25.20;38.80;;;;;;5136058;27;20434;-70
2022/06/01 11:07:37;;;;;;;2.43;1.30;;;26.00;37.20;;;;;;5135888;27;20479;-70
2022/06/01 11:10:12;;;;;;;2.27;1.10;;;26.70;35.50;;;;;;5136047;27;20505;-70
2022/06/01 11:12:49;;;;;;;2.40;1.47;;;27.50;35.70;;;;;;5135803;27;20936;-70
2022/06/01 11:15:25;;;;;;;2.10;1.20;;;28.00;33.90;;;;;;5135984;27;20434;-69
2022/06/01 11:17:57;;;;;;;2.53;1.23;;;28.90;32.30;;;;;;5135689;27;20833;-69
2022/06/01 11:20:49;;;;;;;1.77;1.17;;;29.60;31.40;;;;;;5135965;27;20466;-69
2022/06/01 11:23:44;;;;;;;3.07;1.63;;;29.10;30.00;;;;;;5135556;27;20923;-69
2022/06/01 11:26:23;;;;;;;2.80;1.50;;;28.20;31.10;;;;;;5135776;27;20426;-69
2022/06/01 11:29:15;;;;;;;2.80;1.50;;;28.40;34.70;;;;;;5135782;27;20430;-69
2022/06/01 11:31:44;;;;;;;2.23;1.40;;;28.40;31.70;;;;;;5135388;27;20429;-68
2022/06/01 11:34:15;;;;;;;2.30;1.77;;;28.00;33.10;;;;;;5135129;27;20972;-69
2022/06/01 11:36:49;;;;;;;1.90;1.47;;;27.70;33.00;;;;;;5135570;27;20501;-69
2022/06/01 11:39:24;;;;;;;2.70;1.70;;;27.20;33.20;;;;;;5135421;27;20443;-69
2022/06/01 11:41:59;;;;;;;1.50;1.40;;;26.60;34.50;;;;;;5135219;27;20917;-69
2022/06/01 11:44:34;;;;;;;1.37;1.20;;;26.60;35.10;;;;;;5135615;27;20434;-69
2022/06/01 11:47:03;;;;;;;4.53;1.80;;;26.00;34.30;;;;;;5135781;27;20432;-69
2022/06/01 11:49:36;;;;;;;2.83;1.73;;;25.30;37.20;;;;;;5134916;27;20984;-68
2022/06/01 11:52:32;;;;;;;1.60;1.50;;;24.60;38.20;;;;;;5135266;27;20445;-70
2022/06/01 11:55:25;;;;;;;4.20;1.67;;;23.90;38.50;;;;;;5135263;27;20426;-69
2022/06/01 11:57:55;;;;;;;2.93;1.50;;;23.40;40.90;;;;;;5117830;27;20488;-70
2022/06/01 12:00:33;;;;;;;2.40;1.40;;;22.80;40.60;;;;;;5135082;27;20458;-70
2022/06/01 12:03:22;;;;;;;1.83;1.30;;;22.40;41.70;;;;;;5135210;27;20426;-69
2022/06/01 12:06:01;;;;;;;2.63;1.90;;;22.20;43.80;;;;;;5134734;27;20453;-69
2022/06/01 12:08:33;;;;;;;2.23;1.70;;;21.80;44.90;;;;;;5135083;27;20862;-70
2022/06/01 12:11:03;;;;;;;2.40;1.70;;;21.40;45.10;;;;;;5134928;27;20462;-68
2022/06/01 12:13:32;;;;;;;3.00;1.67;;;20.90;48.00;;;;;;5134895;27;20469;-69
2022/06/01 12:16:20;;;;;;;3.40;2.17;;;20.70;50.20;;;;;;5133795;27;21020;-67
2022/06/01 12:19:11;;;;;;;3.10;1.83;;;20.50;51.80;;;;;;5135206;27;20456;-70
2022/06/01 12:21:56;;;;;;;1.40;1.10;;;20.50;52.60;;;;;;5134961;27;20913;-67
2022/06/01 12:30:17;;;;;;;2.17;1.00;;;20.50;51.60;;;;;;5135166;27;20486;-69
2022/06/01 12:33:14;;;;;;;1.57;1.47;;;20.60;51.70;;;;;;5134757;27;20984;-68
2022/06/01 12:35:59;;;;;;;2.03;1.40;;;20.80;52.00;;;;;;5133175;27;20877;-67
2022/06/01 12:38:33;;;;;;;2.00;1.63;;;21.10;52.30;;;;;;5134654;27;20458;-67
2022/06/01 12:41:14;;;;;;;4.80;1.50;;;21.30;52.40;;;;;;5134499;27;20893;-68
2022/06/01 12:43:47;;;;;;;2.83;1.47;;;21.40;52.30;;;;;;5134525;27;20418;-69
2022/06/01 12:46:22;;;;;;;4.50;2.50;;;21.50;52.00;;;;;;5134445;27;20441;-67
2022/06/01 12:48:49;;;;;;;5.90;2.20;;;21.30;53.00;;;;;;5134295;28;20465;-67
2022/06/01 12:51:18;;;;;;;7.93;2.80;;;20.90;53.70;;;;;;5134357;27;20900;-65
2022/06/01 12:53:47;;;;;;;4.60;1.97;;;20.50;57.70;;;;;;5134552;28;20486;-67
2022/06/01 12:56:17;;;;;;;4.23;1.20;;;20.10;58.10;;;;;;5134427;28;20805;-68
2022/06/01 12:58:45;;;;;;;1.77;1.03;;;20.00;58.40;;;;;;5133959;28;20937;-68
2022/06/01 13:01:12;;;;;;;2.73;1.00;;;20.00;58.80;;;;;;5133991;28;20988;-68
2022/06/01 13:03:44;;;;;;;1.73;1.30;;;20.00;58.40;;;;;;5134297;28;20453;-69
2022/06/01 13:06:16;;;;;;;3.30;1.00;;;20.30;59.30;;;;;;5134340;28;20437;-69
2022/06/01 13:08:46;;;;;;;0.87;0.80;;;21.10;61.80;;;;;;5134264;28;20422;-68
2022/06/01 13:11:23;;;;;;;3.20;1.50;;;22.90;62.50;;;;;;5134163;28;20465;-69
2022/06/01 13:13:51;;;;;;;1.43;1.10;;;25.10;56.30;;;;;;5134216;28;20425;-69
2022/06/01 13:16:20;;;;;;;1.70;1.57;;;27.00;50.80;;;;;;5134215;28;20449;-70
2022/06/01 13:18:47;;;;;;;7.20;2.13;;;28.80;46.30;;;;;;5133695;28;21034;-69
2022/06/01 13:21:25;;;;;;;2.77;2.30;;;30.50;43.00;;;;;;5134029;28;20462;-70
2022/06/01 13:23:56;;;;;;;2.23;2.10;;;31.80;36.30;;;;;;5133988;28;20433;-70
2022/06/01 13:26:29;;;;;;;2.80;2.60;;;32.60;34.20;;;;;;5134122;28;20441;-69
2022/06/01 13:29:07;;;;;;;2.93;2.83;;;33.40;34.00;;;;;;5137884;27;20871;-70
2022/06/01 13:31:34;;;;;;;3.43;2.77;;;33.80;30.00;;;;;;5137872;27;20442;-70
2022/06/01 13:34:01;;;;;;;3.40;3.20;;;34.50;31.00;;;;;;5138003;27;20449;-70
2022/06/01 13:36:30;;;;;;;4.43;4.03;;;35.40;29.20;;;;;;5138061;27;20449;-70